Nebo, Virginia
Current Conditions -  °F | °C
As of 4:55 AM on Tuesday 21 Oct 2014 (Local Time) from KMKJ Reporting Station
Overcast Overcast  
Wind Chill: 51°   Ceiling: 800
Heat Index: 51°   Visibility: 10mi
Dew Point: 49°   Wind: 9mph
Humidity: 92%   Direction: 240°WSW
Pressure: 29.97"   Gusts: NA
Location:  37.0101°N, 81.365°W
Report Text: KMKJ 210855Z AUTO 24008KT 10SM OVC008 11/09 A2997 RMK AO2 T01050092
Loading
Personal Weather Stations






























Interactive Weather Map
Tropical Storm Tracking
New forecast layout! Learn more

10-Day Weather Forecast

Advertisements
Track Severe Weather on mobile